Time;durP1;ratioP1;P1;durP2;ratioP2;P2;SDS_P1;SDS_P2;PMS_P1;PMS_P2;Temp;Humidity;BMP_temperature;BMP_pressure;BME280_temperature;BME280_humidity;BME280_pressure;Samples;Min_cycle;Max_cycle;Signal;HPM_P1;HPM_P2
2022/12/27 00:01:20;;;;;;;3.47;1.27;;;;;;;;;;4895412;29;20260;-87
2022/12/27 00:03:46;;;;;;;3.50;1.73;;;;;;;;;;4891166;29;20229;-86
2022/12/27 00:06:18;;;;;;;3.87;1.43;;;;;;;;;;4885089;29;20228;-86
2022/12/27 00:08:44;;;;;;;7.20;2.13;;;;;;;;;;4877817;29;20284;-87
2022/12/27 00:11:11;;;;;;;4.87;1.50;;;;;;;;;;4884342;29;20227;-86
2022/12/27 00:13:39;;;;;;;7.07;1.57;;;;;;;;;;4896168;29;20728;-87
2022/12/27 00:16:06;;;;;;;6.57;2.00;;;;;;;;;;4915220;29;20228;-85
2022/12/27 00:18:37;;;;;;;5.33;1.70;;;;;;;;;;4889688;29;20230;-87
2022/12/27 00:21:05;;;;;;;3.07;1.30;;;;;;;;;;4862476;29;20637;-85
2022/12/27 00:23:33;;;;;;;3.87;1.30;;;;;;;;;;4888486;28;20273;-84
2022/12/27 00:26:00;;;;;;;4.93;1.47;;;;;;;;;;4895144;29;20688;-87
2022/12/27 00:28:28;;;;;;;4.20;1.43;;;;;;;;;;4888269;29;20323;-87
2022/12/27 00:30:56;;;;;;;4.50;1.60;;;;;;;;;;4887088;29;20293;-86
2022/12/27 00:33:22;;;;;;;4.73;1.43;;;;;;;;;;4896190;29;20232;-86
2022/12/27 00:35:50;;;;;;;3.57;1.30;;;;;;;;;;4885323;29;20216;-86
2022/12/27 00:38:18;;;;;;;4.23;1.57;;;;;;;;;;4898410;29;20251;-88
2022/12/27 00:40:46;;;;;;;4.53;1.50;;;;;;;;;;4893154;29;20227;-85
2022/12/27 00:43:14;;;;;;;5.67;1.60;;;;;;;;;;4871748;29;20232;-83
2022/12/27 00:45:40;;;;;;;3.17;1.50;;;;;;;;;;4897963;29;20236;-87
2022/12/27 00:48:05;;;;;;;15.90;2.10;;;;;;;;;;4887340;29;20229;-86
2022/12/27 00:50:31;;;;;;;4.13;1.70;;;;;;;;;;4878971;29;20221;-89
2022/12/27 00:52:56;;;;;;;4.83;1.53;;;;;;;;;;4888376;29;21032;-86
2022/12/27 00:55:22;;;;;;;8.07;1.80;;;;;;;;;;4889219;29;20742;-86
2022/12/27 00:57:50;;;;;;;6.40;1.87;;;;;;;;;;4892859;29;20221;-87
2022/12/27 01:00:18;;;;;;;4.47;1.50;;;;;;;;;;4887642;29;20237;-88
2022/12/27 01:02:46;;;;;;;3.77;1.37;;;;;;;;;;4878848;29;20225;-86
2022/12/27 01:05:12;;;;;;;4.07;1.30;;;;;;;;;;4891795;29;20228;-86
2022/12/27 01:07:37;;;;;;;2.67;1.57;;;;;;;;;;4889524;29;20236;-87
2022/12/27 01:10:03;;;;;;;1.80;1.20;;;;;;;;;;4873639;29;20283;-87
2022/12/27 01:12:31;;;;;;;9.13;1.83;;;;;;;;;;4914852;29;20500;-85
2022/12/27 01:14:57;;;;;;;4.37;1.50;;;;;;;;;;4891190;29;20284;-89
2022/12/27 01:17:25;;;;;;;3.13;1.23;;;;;;;;;;4901633;29;20224;-86
2022/12/27 01:19:50;;;;;;;6.17;1.50;;;;;;;;;;4887736;29;20237;-83
2022/12/27 01:22:16;;;;;;;5.07;1.77;;;;;;;;;;4902691;29;20648;-84
2022/12/27 01:24:46;;;;;;;4.63;1.40;;;;;;;;;;4889458;29;20228;-88
2022/12/27 01:27:14;;;;;;;3.57;1.50;;;;;;;;;;4888864;29;20225;-83
2022/12/27 01:29:39;;;;;;;9.40;1.57;;;;;;;;;;4886255;29;20758;-85
2022/12/27 01:32:08;;;;;;;4.40;1.63;;;;;;;;;;4897422;29;20237;-86
2022/12/27 01:34:36;;;;;;;2.50;1.60;;;;;;;;;;4894892;29;20225;-85
2022/12/27 01:37:07;;;;;;;4.63;1.70;;;;;;;;;;4892306;29;20232;-86
2022/12/27 01:39:32;;;;;;;4.67;1.50;;;;;;;;;;4893898;29;20886;-89
2022/12/27 01:44:50;;;;;;;2.40;1.67;;;;;;;;;;4904337;29;20591;-87
2022/12/27 01:47:36;;;;;;;3.13;1.57;;;;;;;;;;4890203;29;20228;-85
2022/12/27 01:50:04;;;;;;;4.87;1.30;;;;;;;;;;4897626;29;20324;-88
2022/12/27 01:52:40;;;;;;;3.13;1.43;;;;;;;;;;4900170;29;20236;-85
2022/12/27 01:55:17;;;;;;;4.07;1.63;;;;;;;;;;4869643;29;20237;-85
2022/12/27 01:57:43;;;;;;;4.20;1.30;;;;;;;;;;4890553;29;20259;-88
2022/12/27 02:00:09;;;;;;;4.73;1.60;;;;;;;;;;4884873;29;20228;-83
2022/12/27 02:02:35;;;;;;;2.13;1.40;;;;;;;;;;4882684;29;20237;-88
2022/12/27 02:05:00;;;;;;;2.97;1.70;;;;;;;;;;4884617;29;20228;-85
2022/12/27 02:07:30;;;;;;;3.23;1.80;;;;;;;;;;4892476;29;20220;-86
2022/12/27 02:09:58;;;;;;;4.60;1.83;;;;;;;;;;4890983;29;20220;-86
2022/12/27 02:12:24;;;;;;;3.53;1.57;;;;;;;;;;4892017;29;20232;-86
2022/12/27 02:14:50;;;;;;;3.00;1.40;;;;;;;;;;4871301;29;20225;-88
2022/12/27 02:17:27;;;;;;;7.23;1.50;;;;;;;;;;4895993;29;20287;-85
2022/12/27 02:19:56;;;;;;;1.87;1.43;;;;;;;;;;4871598;29;20244;-89
2022/12/27 02:25:54;;;;;;;6.93;1.80;;;;;;;;;;4909141;29;20714;-86
2022/12/27 02:28:32;;;;;;;3.87;1.80;;;;;;;;;;4915256;29;20648;-86
2022/12/27 02:31:03;;;;;;;3.53;1.90;;;;;;;;;;4897814;29;20300;-87
2022/12/27 02:33:31;;;;;;;3.93;1.70;;;;;;;;;;4872898;29;20690;-85
2022/12/27 02:35:58;;;;;;;6.77;2.17;;;;;;;;;;4857988;29;20710;-88
2022/12/27 02:38:27;;;;;;;6.53;1.80;;;;;;;;;;4870763;29;20225;-86
2022/12/27 02:55:20;;;;;;;5.87;2.20;;;;;;;;;;4903546;29;20217;-85
2022/12/27 02:58:01;;;;;;;7.37;2.13;;;;;;;;;;4915303;29;20240;-86
2022/12/27 03:03:32;;;;;;;4.00;1.90;;;;;;;;;;4885895;29;20245;-85
2022/12/27 03:06:50;;;;;;;3.80;2.00;;;;;;;;;;4898570;29;20228;-87
2022/12/27 03:16:06;;;;;;;4.03;1.80;;;;;;;;;;4917919;28;20375;-87
2022/12/27 03:18:41;;;;;;;5.43;1.90;;;;;;;;;;4907804;29;20234;-85
2022/12/27 03:26:39;;;;;;;3.80;2.10;;;;;;;;;;4899052;29;20233;-87
2022/12/27 03:34:46;;;;;;;4.10;2.00;;;;;;;;;;4902716;29;20225;-86
2022/12/27 03:40:33;;;;;;;4.83;2.37;;;;;;;;;;4895834;29;20237;-86
2022/12/27 03:43:11;;;;;;;3.93;2.10;;;;;;;;;;4915426;29;20236;-84
2022/12/27 03:49:13;;;;;;;3.50;1.90;;;;;;;;;;4906828;29;20240;-86
2022/12/27 03:52:14;;;;;;;6.73;2.27;;;;;;;;;;4914193;28;20233;-87
2022/12/27 03:54:43;;;;;;;4.37;2.23;;;;;;;;;;4888282;29;20253;-86
2022/12/27 03:57:10;;;;;;;3.17;1.87;;;;;;;;;;4898317;29;20223;-86
2022/12/27 03:59:36;;;;;;;4.67;2.67;;;;;;;;;;4912463;28;20231;-85
2022/12/27 04:02:03;;;;;;;6.03;2.40;;;;;;;;;;4907549;29;20240;-84
2022/12/27 04:04:33;;;;;;;3.20;2.33;;;;;;;;;;4917069;29;20224;-86
2022/12/27 04:07:02;;;;;;;4.13;2.00;;;;;;;;;;4906861;29;20252;-83
2022/12/27 04:36:57;;;;;;;4.07;2.40;;;;;;;;;;4890153;29;20783;-84
2022/12/27 04:39:23;;;;;;;4.43;2.03;;;;;;;;;;4882103;29;20241;-85
2022/12/27 04:55:37;;;;;;;8.63;2.97;;;;;;;;;;4910003;29;20219;-86
2022/12/27 04:58:07;;;;;;;5.00;2.60;;;;;;;;;;4887588;29;20601;-84
2022/12/27 05:03:24;;;;;;;9.70;3.13;;;;;;;;;;4892148;29;20228;-86
2022/12/27 05:05:51;;;;;;;4.40;3.00;;;;;;;;;;4886329;29;20305;-87
2022/12/27 05:14:01;;;;;;;4.00;3.00;;;;;;;;;;4892426;29;20228;-87
2022/12/27 05:16:33;;;;;;;4.37;2.93;;;;;;;;;;4905604;29;20220;-86
2022/12/27 05:18:59;;;;;;;7.50;3.50;;;;;;;;;;4887957;29;20251;-87
2022/12/27 05:21:24;;;;;;;6.03;3.50;;;;;;;;;;4889404;29;20293;-88
2022/12/27 05:26:37;;;;;;;6.77;3.30;;;;;;;;;;4880672;29;20531;-86
2022/12/27 05:29:03;;;;;;;7.03;3.83;;;;;;;;;;4876106;29;20249;-83
2022/12/27 05:31:31;;;;;;;10.27;3.50;;;;;;;;;;4888019;29;20692;-86
2022/12/27 05:33:56;;;;;;;7.20;4.07;;;;;;;;;;4896212;29;20221;-85
2022/12/27 05:36:24;;;;;;;5.47;3.50;;;;;;;;;;4895601;29;20227;-86
2022/12/27 05:38:52;;;;;;;5.57;3.90;;;;;;;;;;4889369;29;20236;-86
2022/12/27 05:41:18;;;;;;;7.10;3.73;;;;;;;;;;4892188;29;20225;-83
2022/12/27 05:43:44;;;;;;;6.57;3.90;;;;;;;;;;4903374;29;20227;-88
2022/12/27 05:46:13;;;;;;;6.40;4.37;;;;;;;;;;4903988;29;20220;-86
2022/12/27 05:48:38;;;;;;;7.73;4.23;;;;;;;;;;4874517;29;20224;-87
2022/12/27 05:51:08;;;;;;;8.20;3.80;;;;;;;;;;4873239;29;20229;-86
2022/12/27 05:53:34;;;;;;;5.97;3.83;;;;;;;;;;4878172;29;20272;-86
2022/12/27 05:56:00;;;;;;;5.30;3.63;;;;;;;;;;4882430;29;20666;-83
2022/12/27 05:58:25;;;;;;;4.07;3.63;;;;;;;;;;4889785;29;20234;-86
2022/12/27 06:00:51;;;;;;;7.57;4.37;;;;;;;;;;4885954;29;20244;-85
2022/12/27 06:03:19;;;;;;;9.23;4.30;;;;;;;;;;4852122;29;20233;-88
2022/12/27 06:05:47;;;;;;;10.43;4.60;;;;;;;;;;4915043;29;20251;-87
2022/12/27 06:08:13;;;;;;;5.17;3.90;;;;;;;;;;4872702;29;20288;-88
2022/12/27 06:10:38;;;;;;;6.90;4.13;;;;;;;;;;4906076;29;20224;-85
2022/12/27 06:13:06;;;;;;;5.63;3.97;;;;;;;;;;4885155;29;20232;-88
2022/12/27 06:15:36;;;;;;;5.20;3.80;;;;;;;;;;4883814;29;20232;-86
2022/12/27 06:18:05;;;;;;;6.47;3.57;;;;;;;;;;4897957;29;20299;-88
2022/12/27 06:20:31;;;;;;;9.97;4.53;;;;;;;;;;4882670;29;20236;-84
2022/12/27 06:23:00;;;;;;;4.63;3.73;;;;;;;;;;4882467;29;20237;-87
2022/12/27 06:25:28;;;;;;;5.87;4.17;;;;;;;;;;4905527;29;20228;-88
2022/12/27 06:27:58;;;;;;;4.70;3.77;;;;;;;;;;4877549;29;20236;-87
2022/12/27 06:30:26;;;;;;;7.07;4.73;;;;;;;;;;4880464;29;20228;-87
2022/12/27 06:32:52;;;;;;;9.00;4.40;;;;;;;;;;4892778;29;20228;-87
2022/12/27 06:35:17;;;;;;;6.93;3.70;;;;;;;;;;4882459;29;20687;-87
2022/12/27 06:37:45;;;;;;;9.67;4.30;;;;;;;;;;4876482;29;20258;-89
2022/12/27 06:40:13;;;;;;;6.17;4.03;;;;;;;;;;4889097;29;20235;-86
2022/12/27 06:42:41;;;;;;;7.23;4.60;;;;;;;;;;4893236;29;20224;-86
2022/12/27 06:45:08;;;;;;;9.07;4.40;;;;;;;;;;4898244;29;20675;-83
2022/12/27 06:47:35;;;;;;;7.00;4.67;;;;;;;;;;4883260;29;20743;-87
2022/12/27 06:50:02;;;;;;;4.33;3.90;;;;;;;;;;4889806;29;20592;-87
2022/12/27 06:52:28;;;;;;;6.30;4.23;;;;;;;;;;4863489;29;20205;-86
2022/12/27 06:54:55;;;;;;;5.87;3.80;;;;;;;;;;4856559;29;20225;-88
2022/12/27 06:57:24;;;;;;;4.93;4.03;;;;;;;;;;4890985;29;20291;-84
2022/12/27 06:59:54;;;;;;;6.70;4.20;;;;;;;;;;4912770;29;20262;-84
2022/12/27 07:02:19;;;;;;;7.37;3.63;;;;;;;;;;4899539;29;20228;-84
2022/12/27 07:04:45;;;;;;;4.10;3.70;;;;;;;;;;4887272;29;20225;-84
2022/12/27 07:07:13;;;;;;;5.83;4.27;;;;;;;;;;4898337;29;20239;-86
2022/12/27 07:09:41;;;;;;;4.23;3.50;;;;;;;;;;4881393;29;20220;-87
2022/12/27 07:12:09;;;;;;;5.67;4.43;;;;;;;;;;4883071;29;20763;-89
2022/12/27 07:14:34;;;;;;;7.97;4.63;;;;;;;;;;4889107;29;20228;-85
2022/12/27 07:17:00;;;;;;;6.37;4.10;;;;;;;;;;4895273;29;20237;-87
2022/12/27 07:19:25;;;;;;;7.83;4.90;;;;;;;;;;4890074;29;20283;-87
2022/12/27 07:21:56;;;;;;;6.93;4.53;;;;;;;;;;4886565;29;20225;-85
2022/12/27 07:24:24;;;;;;;7.87;3.93;;;;;;;;;;4873471;29;20924;-85
2022/12/27 07:26:52;;;;;;;5.07;3.77;;;;;;;;;;4871235;29;20220;-87
2022/12/27 07:29:17;;;;;;;4.80;3.70;;;;;;;;;;4888148;29;20244;-86
2022/12/27 07:31:45;;;;;;;6.13;4.70;;;;;;;;;;4894399;29;20239;-85
2022/12/27 07:34:13;;;;;;;5.40;3.90;;;;;;;;;;4895466;29;20225;-87
2022/12/27 07:36:42;;;;;;;5.77;4.20;;;;;;;;;;4887089;29;20236;-84
2022/12/27 07:39:08;;;;;;;5.80;3.60;;;;;;;;;;4876984;29;20237;-87
2022/12/27 07:41:36;;;;;;;4.67;3.70;;;;;;;;;;4880700;29;20292;-84
2022/12/27 07:44:05;;;;;;;7.03;3.50;;;;;;;;;;4887893;29;20437;-82
2022/12/27 07:46:33;;;;;;;6.70;3.40;;;;;;;;;;4877408;29;20280;-83
2022/12/27 07:48:59;;;;;;;4.00;3.60;;;;;;;;;;4891054;29;20412;-84
2022/12/27 07:51:25;;;;;;;5.40;4.07;;;;;;;;;;4884892;29;20237;-85
2022/12/27 07:53:52;;;;;;;6.37;4.37;;;;;;;;;;4883679;29;20281;-85
2022/12/27 07:56:22;;;;;;;4.60;4.10;;;;;;;;;;4885773;29;20653;-81
2022/12/27 07:58:48;;;;;;;5.10;4.23;;;;;;;;;;4873542;29;20638;-84
2022/12/27 08:01:15;;;;;;;4.20;3.40;;;;;;;;;;4876581;29;20226;-85
2022/12/27 08:03:41;;;;;;;3.90;3.17;;;;;;;;;;4893659;29;20227;-85
2022/12/27 08:06:07;;;;;;;4.00;3.20;;;;;;;;;;4889734;29;20241;-84
2022/12/27 08:08:37;;;;;;;5.23;3.47;;;;;;;;;;4867556;29;20348;-84
2022/12/27 08:11:23;;;;;;;4.67;3.50;;;;;;;;;;4889187;29;20228;-83
2022/12/27 08:13:49;;;;;;;7.23;4.70;;;;;;;;;;4862762;29;20269;-84
2022/12/27 08:16:16;;;;;;;8.80;4.47;;;;;;;;;;4886625;29;20238;-82
2022/12/27 08:18:44;;;;;;;5.47;3.37;;;;;;;;;;4878168;29;20229;-83
2022/12/27 08:21:12;;;;;;;5.93;3.50;;;;;;;;;;4879499;29;20244;-85
2022/12/27 08:23:38;;;;;;;6.20;5.17;;;;;;;;;;4870351;29;20338;-83
2022/12/27 08:26:04;;;;;;;9.30;4.43;;;;;;;;;;4865389;29;20260;-84
2022/12/27 08:28:30;;;;;;;4.50;3.60;;;;;;;;;;4885182;29;20220;-83
2022/12/27 08:31:01;;;;;;;6.47;3.73;;;;;;;;;;4874466;29;20229;-84
2022/12/27 08:33:29;;;;;;;10.80;5.17;;;;;;;;;;4884617;29;20272;-84
2022/12/27 08:35:57;;;;;;;6.23;4.33;;;;;;;;;;4882680;29;20728;-85
2022/12/27 08:38:23;;;;;;;8.63;5.77;;;;;;;;;;4887199;29;20236;-84
2022/12/27 08:40:53;;;;;;;5.63;4.50;;;;;;;;;;4884949;29;20722;-83
2022/12/27 08:43:18;;;;;;;6.43;3.57;;;;;;;;;;4857735;29;20763;-85
2022/12/27 08:45:44;;;;;;;6.43;4.27;;;;;;;;;;4894946;29;20284;-84
2022/12/27 08:48:12;;;;;;;4.37;3.47;;;;;;;;;;4869647;29;20221;-84
2022/12/27 08:50:37;;;;;;;6.30;3.97;;;;;;;;;;4887415;29;20221;-83
2022/12/27 08:53:08;;;;;;;6.90;3.50;;;;;;;;;;4897814;29;20233;-82
2022/12/27 08:55:34;;;;;;;4.37;3.60;;;;;;;;;;4886466;29;20226;-83
2022/12/27 08:58:04;;;;;;;4.57;3.57;;;;;;;;;;4892434;29;20223;-83
2022/12/27 09:00:29;;;;;;;4.13;3.60;;;;;;;;;;4895782;29;20217;-84
2022/12/27 09:02:55;;;;;;;5.93;3.80;;;;;;;;;;4892704;29;20243;-82
2022/12/27 09:05:23;;;;;;;4.23;3.77;;;;;;;;;;4867721;29;20725;-81
2022/12/27 09:07:49;;;;;;;6.37;3.73;;;;;;;;;;4887284;29;20221;-80
2022/12/27 09:10:15;;;;;;;7.53;4.60;;;;;;;;;;4886068;29;20223;-82
2022/12/27 09:12:44;;;;;;;6.27;4.17;;;;;;;;;;4899320;29;20325;-82
2022/12/27 09:15:12;;;;;;;4.90;3.97;;;;;;;;;;4890638;29;20639;-82
2022/12/27 09:17:38;;;;;;;4.40;4.00;;;;;;;;;;4874551;29;20225;-82
2022/12/27 09:20:04;;;;;;;6.33;3.90;;;;;;;;;;4871256;29;20232;-83
2022/12/27 09:22:32;;;;;;;5.53;3.53;;;;;;;;;;4895281;29;20236;-82
2022/12/27 09:24:58;;;;;;;5.33;3.57;;;;;;;;;;4892453;29;20334;-83
2022/12/27 09:27:26;;;;;;;4.20;3.80;;;;;;;;;;4908452;29;20227;-83
2022/12/27 09:29:51;;;;;;;7.40;3.33;;;;;;;;;;4902020;29;20240;-82
2022/12/27 09:32:17;;;;;;;7.23;3.50;;;;;;;;;;4898269;29;20291;-83
2022/12/27 09:34:42;;;;;;;4.97;3.23;;;;;;;;;;4896876;29;20225;-83
2022/12/27 09:37:11;;;;;;;5.03;3.43;;;;;;;;;;4895094;29;20233;-81
2022/12/27 09:39:39;;;;;;;5.73;3.30;;;;;;;;;;4895576;29;20236;-84
2022/12/27 09:42:29;;;;;;;5.37;3.30;;;;;;;;;;4860235;29;20594;-82
2022/12/27 09:44:57;;;;;;;7.27;3.50;;;;;;;;;;4894790;29;20255;-81
2022/12/27 09:47:33;;;;;;;5.77;3.37;;;;;;;;;;4901401;29;20232;-83
2022/12/27 09:50:11;;;;;;;3.50;3.20;;;;;;;;;;4886275;29;20233;-81
2022/12/27 09:52:46;;;;;;;7.43;3.33;;;;;;;;;;4884201;29;20235;-83
2022/12/27 09:55:18;;;;;;;8.50;3.13;;;;;;;;;;4886417;29;20601;-81
2022/12/27 09:57:47;;;;;;;3.63;2.83;;;;;;;;;;4875310;29;20331;-82
2022/12/27 10:00:19;;;;;;;5.67;3.23;;;;;;;;;;4848561;29;20280;-83
2022/12/27 10:02:46;;;;;;;5.13;3.33;;;;;;;;;;4880272;29;21051;-85
2022/12/27 10:05:22;;;;;;;4.17;3.20;;;;;;;;;;4871037;29;20261;-84
2022/12/27 10:08:19;;;;;;;5.63;2.97;;;;;;;;;;4880335;29;20244;-83
2022/12/27 10:11:34;;;;;;;6.27;3.10;;;;;;;;;;4879984;29;20220;-84
2022/12/27 10:14:03;;;;;;;5.67;2.97;;;;;;;;;;4888937;29;20317;-83
2022/12/27 10:17:07;;;;;;;6.50;3.00;;;;;;;;;;4880182;29;20224;-82
2022/12/27 10:19:42;;;;;;;9.50;5.80;;;;;;;;;;4901991;29;20236;-82
2022/12/27 10:22:34;;;;;;;5.83;4.83;;;;;;;;;;4899680;29;20239;-82
2022/12/27 10:25:03;;;;;;;5.27;3.17;;;;;;;;;;4891385;29;20288;-83
2022/12/27 10:27:28;;;;;;;4.27;2.70;;;;;;;;;;4874852;29;20284;-83
2022/12/27 10:29:55;;;;;;;4.70;2.87;;;;;;;;;;4908070;29;20240;-84
2022/12/27 10:32:21;;;;;;;3.43;3.10;;;;;;;;;;4887210;29;20221;-81
2022/12/27 10:34:49;;;;;;;9.43;2.77;;;;;;;;;;4886108;29;20225;-82
2022/12/27 10:37:17;;;;;;;4.83;2.80;;;;;;;;;;4885883;29;20233;-82
2022/12/27 10:39:47;;;;;;;5.30;2.53;;;;;;;;;;4887665;29;20316;-83
2022/12/27 10:42:24;;;;;;;7.53;3.00;;;;;;;;;;4891853;29;20240;-80
2022/12/27 10:44:50;;;;;;;5.17;2.80;;;;;;;;;;4914688;29;20239;-83
2022/12/27 10:47:16;;;;;;;5.57;2.53;;;;;;;;;;4892694;29;20238;-84
2022/12/27 10:49:43;;;;;;;6.63;2.60;;;;;;;;;;4885820;29;20229;-81
2022/12/27 10:52:09;;;;;;;4.93;2.17;;;;;;;;;;4881288;29;20233;-85
2022/12/27 10:54:48;;;;;;;4.53;2.77;;;;;;;;;;4904467;29;20314;-85
2022/12/27 10:57:32;;;;;;;4.07;2.70;;;;;;;;;;4886547;29;20236;-83
2022/12/27 11:00:13;;;;;;;4.00;2.50;;;;;;;;;;4859196;29;20280;-83
2022/12/27 11:02:59;;;;;;;4.53;2.73;;;;;;;;;;4902808;29;20232;-83
2022/12/27 11:05:31;;;;;;;5.17;3.00;;;;;;;;;;4903974;29;20281;-83
2022/12/27 11:08:00;;;;;;;4.73;2.70;;;;;;;;;;4896432;29;20224;-85
2022/12/27 11:10:31;;;;;;;3.53;2.87;;;;;;;;;;4884575;29;20319;-80
2022/12/27 11:13:07;;;;;;;3.53;2.77;;;;;;;;;;4891357;29;20228;-84
2022/12/27 11:15:36;;;;;;;4.63;2.77;;;;;;;;;;4890478;29;20676;-83
2022/12/27 11:18:18;;;;;;;4.77;3.17;;;;;;;;;;4893037;29;20232;-83
2022/12/27 11:21:02;;;;;;;5.70;2.90;;;;;;;;;;4881626;29;20256;-84
2022/12/27 11:23:35;;;;;;;4.30;3.20;;;;;;;;;;4891677;29;20224;-82
2022/12/27 11:26:04;;;;;;;5.60;3.50;;;;;;;;;;4891774;29;20236;-84
2022/12/27 11:28:43;;;;;;;4.10;2.90;;;;;;;;;;4896245;29;20241;-83
2022/12/27 11:31:10;;;;;;;6.03;3.63;;;;;;;;;;4890210;29;20246;-83
2022/12/27 11:33:55;;;;;;;5.33;3.30;;;;;;;;;;4887463;29;20308;-85
2022/12/27 11:36:27;;;;;;;6.27;3.67;;;;;;;;;;4884952;29;20253;-82
2022/12/27 11:38:52;;;;;;;5.17;3.33;;;;;;;;;;4911728;29;20668;-83
2022/12/27 11:41:32;;;;;;;4.13;3.20;;;;;;;;;;4883349;29;20311;-83
2022/12/27 11:44:09;;;;;;;6.47;3.50;;;;;;;;;;4901464;29;20319;-83
2022/12/27 11:46:51;;;;;;;5.63;3.47;;;;;;;;;;4893131;29;20228;-82
2022/12/27 11:49:29;;;;;;;3.90;2.93;;;;;;;;;;4897083;29;20239;-82
2022/12/27 11:52:33;;;;;;;5.00;2.80;;;;;;;;;;4884681;29;20380;-83
2022/12/27 11:55:23;;;;;;;7.07;3.30;;;;;;;;;;4897069;29;20239;-84
2022/12/27 11:58:13;;;;;;;4.37;3.10;;;;;;;;;;4902888;29;20232;-84
2022/12/27 12:00:45;;;;;;;7.33;3.90;;;;;;;;;;4878670;29;20304;-83
2022/12/27 12:03:39;;;;;;;4.90;2.97;;;;;;;;;;4881267;29;20248;-84
2022/12/27 12:06:12;;;;;;;7.17;3.10;;;;;;;;;;4878914;29;20224;-83
2022/12/27 12:08:49;;;;;;;6.07;3.10;;;;;;;;;;4883503;29;20225;-82
2022/12/27 12:11:21;;;;;;;3.53;3.00;;;;;;;;;;4881605;29;20240;-84
2022/12/27 12:14:13;;;;;;;3.63;3.00;;;;;;;;;;4893610;29;20229;-84
2022/12/27 12:16:44;;;;;;;9.10;3.83;;;;;;;;;;4885989;29;20221;-82
2022/12/27 12:19:13;;;;;;;5.10;3.50;;;;;;;;;;4905161;29;20287;-84
2022/12/27 12:22:01;;;;;;;7.03;3.33;;;;;;;;;;4912563;29;20225;-85
2022/12/27 12:24:53;;;;;;;6.30;3.20;;;;;;;;;;4911686;29;20240;-83
2022/12/27 12:27:52;;;;;;;3.43;2.53;;;;;;;;;;4902193;29;20235;-83
2022/12/27 12:30:41;;;;;;;5.53;3.10;;;;;;;;;;4913910;29;20263;-82
2022/12/27 12:33:25;;;;;;;4.33;2.43;;;;;;;;;;4885315;29;20236;-82
2022/12/27 12:36:14;;;;;;;3.87;2.53;;;;;;;;;;4914470;29;20823;-83
2022/12/27 12:38:51;;;;;;;3.70;2.63;;;;;;;;;;4908937;29;20235;-83
2022/12/27 12:41:54;;;;;;;5.57;2.60;;;;;;;;;;4884349;29;20697;-83
2022/12/27 12:44:22;;;;;;;6.00;2.80;;;;;;;;;;4911157;29;20557;-82
2022/12/27 12:46:52;;;;;;;6.97;3.20;;;;;;;;;;4912789;29;20244;-83
2022/12/27 12:49:39;;;;;;;6.73;3.27;;;;;;;;;;4885366;29;20228;-82
2022/12/27 12:52:31;;;;;;;5.03;2.80;;;;;;;;;;4919418;29;20458;-82
2022/12/27 12:55:21;;;;;;;4.50;2.70;;;;;;;;;;4921214;29;20236;-83
2022/12/27 12:58:00;;;;;;;7.57;3.13;;;;;;;;;;4902451;29;20229;-84
2022/12/27 13:00:49;;;;;;;4.57;2.60;;;;;;;;;;4901062;29;20237;-83
2022/12/27 13:03:30;;;;;;;6.70;2.87;;;;;;;;;;4881636;29;20284;-84
2022/12/27 13:06:38;;;;;;;8.63;2.93;;;;;;;;;;4897809;29;20233;-83
2022/12/27 13:09:32;;;;;;;6.70;3.13;;;;;;;;;;4896147;29;20706;-83
2022/12/27 13:12:03;;;;;;;6.17;3.00;;;;;;;;;;4881597;29;20244;-84
2022/12/27 13:14:56;;;;;;;6.23;3.27;;;;;;;;;;4892036;29;20312;-83
2022/12/27 13:17:30;;;;;;;7.17;3.30;;;;;;;;;;4900518;29;20310;-83
2022/12/27 13:20:17;;;;;;;4.97;2.80;;;;;;;;;;4906826;29;20240;-83
2022/12/27 13:22:51;;;;;;;5.53;2.97;;;;;;;;;;4904567;29;20284;-81
2022/12/27 13:25:27;;;;;;;5.50;2.80;;;;;;;;;;4902123;29;20291;-82
2022/12/27 13:28:10;;;;;;;4.77;2.97;;;;;;;;;;4869878;29;20279;-80
2022/12/27 13:30:48;;;;;;;4.37;2.73;;;;;;;;;;4899313;29;20236;-85
2022/12/27 13:33:13;;;;;;;9.30;3.77;;;;;;;;;;4901095;29;20256;-83
2022/12/27 13:36:16;;;;;;;5.10;3.20;;;;;;;;;;4905648;29;20248;-83
2022/12/27 13:38:48;;;;;;;6.07;3.20;;;;;;;;;;4906301;29;20220;-83
2022/12/27 13:41:53;;;;;;;3.00;2.60;;;;;;;;;;4910422;29;20228;-84
2022/12/27 13:44:24;;;;;;;13.80;2.80;;;;;;;;;;4904632;29;20698;-84
2022/12/27 13:47:08;;;;;;;5.67;3.17;;;;;;;;;;4885652;29;20702;-85
2022/12/27 13:49:36;;;;;;;3.90;2.57;;;;;;;;;;4905878;29;20228;-84
2022/12/27 13:52:21;;;;;;;5.77;3.10;;;;;;;;;;4886353;29;20582;-83
2022/12/27 13:55:25;;;;;;;4.93;3.30;;;;;;;;;;4899225;29;20594;-83
2022/12/27 13:58:33;;;;;;;7.27;4.20;;;;;;;;;;4894065;29;20220;-84
2022/12/27 14:01:38;;;;;;;7.53;3.97;;;;;;;;;;4897021;29;20304;-84
2022/12/27 14:04:34;;;;;;;7.17;3.97;;;;;;;;;;4879926;29;20284;-84
2022/12/27 14:07:24;;;;;;;7.30;3.57;;;;;;;;;;4888935;29;20247;-83
2022/12/27 14:10:05;;;;;;;5.33;3.70;;;;;;;;;;4900334;29;20280;-84
2022/12/27 14:13:09;;;;;;;3.53;3.17;;;;;;;;;;4901784;29;20981;-85
2022/12/27 14:19:40;;;;;;;5.90;3.50;;;;;;;;;;4853148;29;22499;-85
2022/12/27 14:22:42;;;;;;;5.50;2.93;;;;;;;;;;4905912;29;20555;-83
2022/12/27 14:25:26;;;;;;;15.70;9.13;;;;;;;;;;4904378;29;20307;-83
2022/12/27 14:28:42;;;;;;;33.60;14.83;;;;;;;;;;4906727;29;20255;-84
2022/12/27 14:31:22;;;;;;;9.27;5.23;;;;;;;;;;4875179;29;20236;-84
2022/12/27 14:34:16;;;;;;;6.07;3.67;;;;;;;;;;4885799;29;20296;-84
2022/12/27 14:37:06;;;;;;;6.10;3.10;;;;;;;;;;4904761;29;20232;-83
2022/12/27 14:39:53;;;;;;;6.10;3.70;;;;;;;;;;4905897;29;20671;-84
2022/12/27 14:42:33;;;;;;;4.83;3.13;;;;;;;;;;4880392;29;20241;-84
2022/12/27 14:45:33;;;;;;;4.63;3.33;;;;;;;;;;4884769;29;20233;-85
2022/12/27 14:48:08;;;;;;;5.87;3.47;;;;;;;;;;4844493;29;20292;-84
2022/12/27 14:50:56;;;;;;;5.60;3.47;;;;;;;;;;4884397;29;20288;-83
2022/12/27 14:53:40;;;;;;;5.67;3.23;;;;;;;;;;4884110;29;20229;-84
2022/12/27 14:56:16;;;;;;;5.03;3.60;;;;;;;;;;4884940;29;20230;-82
2022/12/27 14:58:54;;;;;;;4.83;3.20;;;;;;;;;;4892018;29;20229;-82
2022/12/27 15:01:22;;;;;;;6.47;3.50;;;;;;;;;;4865469;29;20280;-84
2022/12/27 15:04:09;;;;;;;5.03;3.30;;;;;;;;;;4893157;29;20217;-84
2022/12/27 15:06:59;;;;;;;5.47;2.83;;;;;;;;;;4875926;29;20277;-84
2022/12/27 15:09:43;;;;;;;5.67;2.93;;;;;;;;;;4888262;29;20230;-84
2022/12/27 15:12:21;;;;;;;10.13;3.17;;;;;;;;;;4899152;29;20696;-84
2022/12/27 15:15:07;;;;;;;4.60;3.20;;;;;;;;;;4874307;29;20237;-82
2022/12/27 15:17:35;;;;;;;5.17;3.37;;;;;;;;;;4885847;29;20697;-83
2022/12/27 15:20:06;;;;;;;6.53;3.27;;;;;;;;;;4883042;29;20322;-84
2022/12/27 15:22:47;;;;;;;4.60;3.47;;;;;;;;;;4873515;29;20234;-84
2022/12/27 15:25:45;;;;;;;7.53;3.53;;;;;;;;;;4883395;29;20607;-84
2022/12/27 15:29:05;;;;;;;6.93;3.40;;;;;;;;;;4875292;29;20293;-83
2022/12/27 15:31:40;;;;;;;6.97;3.10;;;;;;;;;;4854397;29;20426;-81
2022/12/27 15:34:24;;;;;;;5.77;4.33;;;;;;;;;;4867272;29;20239;-85
2022/12/27 15:36:49;;;;;;;4.03;2.87;;;;;;;;;;4885270;29;20229;-83
2022/12/27 15:39:32;;;;;;;4.93;2.73;;;;;;;;;;4870291;29;20256;-84
2022/12/27 15:42:32;;;;;;;4.63;3.40;;;;;;;;;;4902972;29;20240;-85
2022/12/27 15:45:41;;;;;;;7.73;3.40;;;;;;;;;;4899046;29;20240;-84
2022/12/27 15:48:40;;;;;;;8.03;3.03;;;;;;;;;;4846403;29;20258;-84
2022/12/27 15:51:14;;;;;;;5.53;3.07;;;;;;;;;;4859617;29;20647;-84
2022/12/27 15:53:59;;;;;;;3.97;2.77;;;;;;;;;;4863766;29;20232;-84
2022/12/27 15:56:40;;;;;;;8.57;3.23;;;;;;;;;;4904925;29;20220;-85
2022/12/27 15:59:35;;;;;;;4.13;2.63;;;;;;;;;;4901436;29;20939;-81
2022/12/27 16:02:16;;;;;;;5.90;3.20;;;;;;;;;;4913113;29;20248;-84
2022/12/27 16:04:47;;;;;;;5.43;2.77;;;;;;;;;;4891499;29;20228;-82
2022/12/27 16:07:42;;;;;;;4.90;2.97;;;;;;;;;;4916445;29;20255;-80
2022/12/27 16:10:29;;;;;;;9.73;3.33;;;;;;;;;;4889008;29;20453;-82
2022/12/27 16:13:07;;;;;;;5.83;3.43;;;;;;;;;;4904889;29;20236;-83
2022/12/27 16:15:33;;;;;;;6.57;3.77;;;;;;;;;;4896732;29;20610;-83
2022/12/27 16:18:02;;;;;;;5.37;3.60;;;;;;;;;;4903609;29;20249;-84
2022/12/27 16:20:27;;;;;;;5.50;3.77;;;;;;;;;;4885327;29;20239;-84
2022/12/27 16:23:00;;;;;;;6.57;3.83;;;;;;;;;;4900124;29;20256;-82
2022/12/27 16:25:28;;;;;;;7.07;4.00;;;;;;;;;;4900669;29;20699;-84
2022/12/27 16:28:12;;;;;;;10.13;4.43;;;;;;;;;;4908355;29;20236;-82
2022/12/27 16:30:48;;;;;;;5.43;3.63;;;;;;;;;;4879862;29;20224;-82
2022/12/27 16:33:26;;;;;;;6.60;3.43;;;;;;;;;;4882843;29;20220;-84
2022/12/27 16:36:10;;;;;;;5.97;3.60;;;;;;;;;;4900628;29;20239;-82
2022/12/27 16:39:02;;;;;;;4.67;3.77;;;;;;;;;;4906730;29;20235;-83
2022/12/27 16:41:48;;;;;;;4.90;3.57;;;;;;;;;;4872119;29;20237;-85
2022/12/27 16:44:23;;;;;;;6.77;3.53;;;;;;;;;;4878325;29;20328;-82
2022/12/27 16:46:58;;;;;;;3.73;3.43;;;;;;;;;;4882653;29;20610;-83
2022/12/27 16:49:44;;;;;;;6.07;3.77;;;;;;;;;;4905930;29;20272;-83
2022/12/27 16:52:16;;;;;;;6.37;3.80;;;;;;;;;;4901389;29;20236;-84
2022/12/27 16:54:56;;;;;;;5.43;3.90;;;;;;;;;;4906955;29;20691;-85
2022/12/27 16:57:25;;;;;;;7.23;3.73;;;;;;;;;;4910816;29;20219;-85
2022/12/27 17:00:02;;;;;;;4.47;3.43;;;;;;;;;;4905814;29;20237;-82
2022/12/27 17:02:40;;;;;;;5.40;4.00;;;;;;;;;;4907660;29;20244;-83
2022/12/27 17:05:15;;;;;;;4.50;3.97;;;;;;;;;;4906216;29;20229;-85
2022/12/27 17:07:40;;;;;;;8.53;4.40;;;;;;;;;;4908167;29;20231;-85
2022/12/27 17:10:26;;;;;;;6.77;4.17;;;;;;;;;;4908480;29;20235;-83